sensor_id;sensor_type;location;lat;lon;timestamp;P1;P2;P0
68198;PMS7003;55021;51.554;17.044;2023-03-23T00:10:07;19.50;15.75;9.50
68198;PMS7003;55021;51.554;17.044;2023-03-23T00:25:10;27.50;25.00;14.75
68198;PMS7003;55021;51.554;17.044;2023-03-23T00:40:13;33.00;28.50;16.50
68198;PMS7003;55021;51.554;17.044;2023-03-23T00:55:16;31.00;26.50;17.25
68198;PMS7003;55021;51.554;17.044;2023-03-23T01:10:18;37.00;25.00;15.25
68198;PMS7003;55021;51.554;17.044;2023-03-23T01:25:21;30.50;26.75;18.75
68198;PMS7003;55021;51.554;17.044;2023-03-23T01:40:26;26.75;25.50;14.50
68198;PMS7003;55021;51.554;17.044;2023-03-23T01:55:29;30.50;27.50;16.00
68198;PMS7003;55021;51.554;17.044;2023-03-23T02:10:33;25.75;24.50;16.75
68198;PMS7003;55021;51.554;17.044;2023-03-23T02:25:49;29.25;24.00;15.50
68198;PMS7003;55021;51.554;17.044;2023-03-23T02:41:02;30.75;24.25;14.50
68198;PMS7003;55021;51.554;17.044;2023-03-23T02:56:06;27.75;24.00;15.00
68198;PMS7003;55021;51.554;17.044;2023-03-23T03:11:11;30.00;26.75;15.50
68198;PMS7003;55021;51.554;17.044;2023-03-23T03:26:16;31.50;28.75;17.75
68198;PMS7003;55021;51.554;17.044;2023-03-23T03:41:21;34.25;31.75;19.50
68198;PMS7003;55021;51.554;17.044;2023-03-23T03:56:23;29.50;25.50;17.25
68198;PMS7003;55021;51.554;17.044;2023-03-23T04:11:27;33.50;29.00;17.00
68198;PMS7003;55021;51.554;17.044;2023-03-23T04:26:29;36.25;30.00;19.50
68198;PMS7003;55021;51.554;17.044;2023-03-23T04:41:32;32.00;25.25;15.50
68198;PMS7003;55021;51.554;17.044;2023-03-23T04:56:34;25.25;24.25;14.75
68198;PMS7003;55021;51.554;17.044;2023-03-23T05:11:37;24.00;21.00;13.75
68198;PMS7003;55021;51.554;17.044;2023-03-23T05:26:39;28.25;23.75;14.00
68198;PMS7003;55021;51.554;17.044;2023-03-23T05:41:42;41.75;34.25;22.50
68198;PMS7003;55021;51.554;17.044;2023-03-23T05:56:44;27.25;21.00;13.00
68198;PMS7003;55021;51.554;17.044;2023-03-23T06:11:47;25.00;19.25;11.50
68198;PMS7003;55021;51.554;17.044;2023-03-23T06:26:49;20.25;19.75;12.00
68198;PMS7003;55021;51.554;17.044;2023-03-23T06:41:52;23.25;23.00;16.00
68198;PMS7003;55021;51.554;17.044;2023-03-23T06:56:54;18.75;16.75;9.50
68198;PMS7003;55021;51.554;17.044;2023-03-23T07:11:57;18.75;17.50;11.00
68198;PMS7003;55021;51.554;17.044;2023-03-23T07:27:00;17.25;17.00;10.75
68198;PMS7003;55021;51.554;17.044;2023-03-23T07:42:03;27.00;26.50;18.00
68198;PMS7003;55021;51.554;17.044;2023-03-23T07:57:06;17.75;16.50;10.00
68198;PMS7003;55021;51.554;17.044;2023-03-23T08:12:09;18.50;17.00;10.00
68198;PMS7003;55021;51.554;17.044;2023-03-23T08:27:12;16.50;16.25;10.00
68198;PMS7003;55021;51.554;17.044;2023-03-23T08:42:14;19.25;16.00;10.00
68198;PMS7003;55021;51.554;17.044;2023-03-23T08:57:17;17.25;15.25;9.00
68198;PMS7003;55021;51.554;17.044;2023-03-23T09:12:19;16.00;14.00;9.00
68198;PMS7003;55021;51.554;17.044;2023-03-23T09:27:22;12.00;11.75;7.00
68198;PMS7003;55021;51.554;17.044;2023-03-23T09:42:29;10.25;10.25;6.00
68198;PMS7003;55021;51.554;17.044;2023-03-23T09:57:40;8.25;7.25;3.25
68198;PMS7003;55021;51.554;17.044;2023-03-23T10:12:49;7.75;7.50;3.00
68198;PMS7003;55021;51.554;17.044;2023-03-23T10:27:59;6.75;6.75;3.00
68198;PMS7003;55021;51.554;17.044;2023-03-23T10:43:07;8.50;7.00;2.50
68198;PMS7003;55021;51.554;17.044;2023-03-23T10:58:11;6.00;6.00;2.00
68198;PMS7003;55021;51.554;17.044;2023-03-23T11:13:28;8.25;7.75;3.00
68198;PMS7003;55021;51.554;17.044;2023-03-23T11:28:35;7.00;7.00;3.00
68198;PMS7003;55021;51.554;17.044;2023-03-23T11:43:44;10.00;6.25;2.75
68198;PMS7003;55021;51.554;17.044;2023-03-23T11:58:48;8.75;8.75;3.25
68198;PMS7003;55021;51.554;17.044;2023-03-23T12:13:54;7.25;7.00;3.75
68198;PMS7003;55021;51.554;17.044;2023-03-23T12:29:14;11.00;9.00;4.00
68198;PMS7003;55021;51.554;17.044;2023-03-23T12:44:26;10.00;8.25;5.00
68198;PMS7003;55021;51.554;17.044;2023-03-23T12:59:39;9.00;8.00;4.00
68198;PMS7003;55021;51.554;17.044;2023-03-23T13:14:48;8.50;7.00;4.00
68198;PMS7003;55021;51.554;17.044;2023-03-23T13:29:59;7.25;6.25;3.00
68198;PMS7003;55021;51.554;17.044;2023-03-23T13:45:18;8.25;8.25;4.25
68198;PMS7003;55021;51.554;17.044;2023-03-23T14:15:55;10.75;9.50;4.00
68198;PMS7003;55021;51.554;17.044;2023-03-23T14:31:00;8.50;8.50;5.00
68198;PMS7003;55021;51.554;17.044;2023-03-23T14:46:05;9.25;9.00;4.25
68198;PMS7003;55021;51.554;17.044;2023-03-23T15:01:10;9.50;7.75;3.75
68198;PMS7003;55021;51.554;17.044;2023-03-23T15:16:17;8.25;6.25;2.75
68198;PMS7003;55021;51.554;17.044;2023-03-23T15:31:22;8.00;7.00;3.00
68198;PMS7003;55021;51.554;17.044;2023-03-23T15:46:27;5.75;5.75;2.50
68198;PMS7003;55021;51.554;17.044;2023-03-23T16:01:30;8.00;7.50;3.00
68198;PMS7003;55021;51.554;17.044;2023-03-23T16:16:34;7.00;6.00;3.00
68198;PMS7003;55021;51.554;17.044;2023-03-23T16:31:39;10.00;7.50;3.00
68198;PMS7003;55021;51.554;17.044;2023-03-23T16:46:41;9.00;8.00;4.00
68198;PMS7003;55021;51.554;17.044;2023-03-23T17:01:44;9.00;9.00;4.00
68198;PMS7003;55021;51.554;17.044;2023-03-23T17:16:47;9.00;9.00;4.25
68198;PMS7003;55021;51.554;17.044;2023-03-23T17:31:50;9.00;8.25;4.50
68198;PMS7003;55021;51.554;17.044;2023-03-23T17:46:52;13.00;11.00;6.00
68198;PMS7003;55021;51.554;17.044;2023-03-23T18:01:55;12.75;12.25;6.00
68198;PMS7003;55021;51.554;17.044;2023-03-23T18:16:58;17.25;14.75;8.00
68198;PMS7003;55021;51.554;17.044;2023-03-23T18:32:00;17.00;14.00;8.00
68198;PMS7003;55021;51.554;17.044;2023-03-23T18:47:03;13.50;13.50;7.75
68198;PMS7003;55021;51.554;17.044;2023-03-23T19:02:06;12.75;12.00;7.00
68198;PMS7003;55021;51.554;17.044;2023-03-23T19:17:09;15.25;12.75;7.00
68198;PMS7003;55021;51.554;17.044;2023-03-23T19:32:12;13.00;11.00;6.00
68198;PMS7003;55021;51.554;17.044;2023-03-23T19:47:14;11.00;11.00;5.75
68198;PMS7003;55021;51.554;17.044;2023-03-23T20:02:17;10.25;10.00;5.00
68198;PMS7003;55021;51.554;17.044;2023-03-23T20:17:19;15.50;13.75;8.00
68198;PMS7003;55021;51.554;17.044;2023-03-23T20:32:22;22.00;18.00;10.50
68198;PMS7003;55021;51.554;17.044;2023-03-23T20:47:24;20.25;18.25;12.50
68198;PMS7003;55021;51.554;17.044;2023-03-23T21:02:27;25.75;24.25;15.00
68198;PMS7003;55021;51.554;17.044;2023-03-23T21:17:29;22.25;20.50;12.25
68198;PMS7003;55021;51.554;17.044;2023-03-23T21:32:31;27.75;23.75;16.75
68198;PMS7003;55021;51.554;17.044;2023-03-23T21:47:34;25.50;22.75;15.00
68198;PMS7003;55021;51.554;17.044;2023-03-23T22:02:37;20.25;19.00;13.00
68198;PMS7003;55021;51.554;17.044;2023-03-23T22:17:40;18.25;18.00;11.00
68198;PMS7003;55021;51.554;17.044;2023-03-23T22:32:42;18.50;14.75;8.25
68198;PMS7003;55021;51.554;17.044;2023-03-23T22:47:45;17.00;17.00;10.50
68198;PMS7003;55021;51.554;17.044;2023-03-23T23:02:47;23.50;20.50;11.50
68198;PMS7003;55021;51.554;17.044;2023-03-23T23:17:50;17.00;15.00;8.75
68198;PMS7003;55021;51.554;17.044;2023-03-23T23:32:52;17.25;15.75;10.00
68198;PMS7003;55021;51.554;17.044;2023-03-23T23:47:55;20.75;16.50;9.00
